Time;durP1;ratioP1;P1;durP2;ratioP2;P2;SDS_P1;SDS_P2;PMS_P1;PMS_P2;Temp;Humidity;BMP_temperature;BMP_pressure;BME280_temperature;BME280_humidity;BME280_pressure;Samples;Min_cycle;Max_cycle;Signal;HPM_P1;HPM_P2
2022/11/03 00:00:51;;;;;;;11.27;7.10;;;;;;;8.57;92.49;98544.97;5214974;22;20662;-87
2022/11/03 00:02:54;;;;;;;9.68;6.60;;;;;;;8.56;93.23;98549.31;5215230;22;20727;-87
2022/11/03 00:06:03;;;;;;;10.77;6.40;;;;;;;8.54;93.02;98537.34;5187330;22;20271;-87
2022/11/03 00:07:21;;;;;;;14.32;7.13;;;;;;;8.55;92.14;98541.59;5213978;22;20698;-87
2022/11/03 00:09:25;;;;;;;10.45;6.50;;;;;;;8.53;92.79;98543.44;5215971;22;20180;-87
2022/11/03 00:11:32;;;;;;;11.67;7.00;;;;;;;8.52;92.62;98536.56;5213680;22;20259;-87
2022/11/03 00:13:37;;;;;;;12.48;7.28;;;;;;;8.52;92.33;98534.81;5188923;22;21173;-87
2022/11/03 00:15:48;;;;;;;12.68;8.13;;;;;;;8.50;93.80;98533.22;5189068;22;20180;-87
2022/11/03 00:17:51;;;;;;;11.57;7.30;;;;;;;8.50;93.03;98538.41;5189554;22;20251;-87
2022/11/03 00:19:54;;;;;;;10.02;6.60;;;;;;;8.50;92.35;98533.22;5188140;22;20294;-87
2022/11/03 00:21:58;;;;;;;11.73;6.20;;;;;;;8.49;92.21;98534.13;5216625;22;20184;-87
2022/11/03 00:24:02;;;;;;;13.90;7.45;;;;;;;8.48;92.63;98530.69;5216895;22;20182;-87
2022/11/03 00:26:10;;;;;;;13.27;6.93;;;;;;;8.48;92.28;98532.47;5216160;22;20199;-87
2022/11/03 00:28:13;;;;;;;9.18;6.20;;;;;;;8.48;92.58;98516.88;5188261;22;20172;-87
2022/11/03 00:30:17;;;;;;;15.55;9.45;;;;;;;8.46;92.73;98521.28;5188801;22;20260;-87
2022/11/03 00:32:20;;;;;;;14.00;8.23;;;;;;;8.46;93.22;98523.88;5189007;22;20238;-87
2022/11/03 00:34:24;;;;;;;19.65;8.93;;;;;;;8.43;92.49;98518.84;5214373;22;20179;-87
2022/11/03 00:36:28;;;;;;;17.90;9.07;;;;;;;8.42;93.21;98521.53;5215444;22;20176;-87
2022/11/03 00:38:32;;;;;;;15.52;8.20;;;;;;;8.40;92.28;98519.00;5189197;22;20901;-87
2022/11/03 00:40:35;;;;;;;16.02;8.80;;;;;;;8.39;92.70;98517.34;5216616;22;20172;-86
2022/11/03 00:42:38;;;;;;;12.82;8.13;;;;;;;8.39;93.20;98506.97;5214017;22;20176;-87
2022/11/03 00:44:41;;;;;;;11.88;7.47;;;;;;;8.39;92.37;98506.97;5214237;22;20199;-87
2022/11/03 00:46:45;;;;;;;14.85;7.50;;;;;;;8.38;92.54;98505.28;5188727;22;20193;-87
2022/11/03 00:48:48;;;;;;;10.80;6.47;;;;;;;8.38;92.28;98504.44;5214375;22;20179;-86
2022/11/03 00:50:52;;;;;;;12.68;7.70;;;;;;;8.37;92.29;98492.38;5215270;22;20609;-87
2022/11/03 00:52:55;;;;;;;9.90;6.03;;;;;;;8.37;92.90;98498.38;5214285;22;20176;-87
2022/11/03 00:54:58;;;;;;;13.32;6.80;;;;;;;8.34;93.69;98492.53;5214211;22;20184;-87
2022/11/03 00:57:01;;;;;;;10.43;6.82;;;;;;;8.33;93.22;98491.69;5188706;22;20526;-87
2022/11/03 00:59:05;;;;;;;8.65;6.13;;;;;;;8.33;93.78;98491.69;5215154;22;20237;-87
2022/11/03 01:01:10;;;;;;;11.48;6.93;;;;;;;8.33;92.70;98491.69;5188956;22;20266;-87
2022/11/03 01:03:15;;;;;;;13.40;7.00;;;;;;;8.32;92.98;98492.59;5189316;22;20212;-87
2022/11/03 01:07:47;;;;;;;9.75;7.47;;;;;;;8.30;93.12;98483.19;5135402;22;20211;-87
2022/11/03 01:09:51;;;;;;;7.13;5.72;;;;;;;8.27;93.15;98476.44;5215159;22;20182;-87
2022/11/03 01:11:57;;;;;;;8.93;5.90;;;;;;;8.27;92.83;98476.44;5189200;22;20632;-87
2022/11/03 01:14:02;;;;;;;9.85;5.90;;;;;;;8.24;92.95;98471.41;5219351;22;20213;-86
2022/11/03 01:16:09;;;;;;;11.30;5.93;;;;;;;8.25;93.24;98467.03;5193331;22;20180;-87
2022/11/03 01:18:12;;;;;;;10.00;6.00;;;;;;;8.24;92.01;98473.13;5214505;22;20210;-87
2022/11/03 01:20:17;;;;;;;11.40;6.22;;;;;;;8.20;92.66;98475.06;5215615;22;20179;-87
2022/11/03 01:22:21;;;;;;;9.55;5.60;;;;;;;8.15;92.37;98474.47;5213957;22;20172;-87
2022/11/03 01:24:24;;;;;;;10.85;6.03;;;;;;;8.13;93.17;98468.53;5214150;22;20672;-86
2022/11/03 01:26:27;;;;;;;11.40;5.78;;;;;;;8.12;93.11;98464.25;5188721;22;20176;-87
2022/11/03 01:28:30;;;;;;;10.65;5.63;;;;;;;8.11;92.23;98459.09;5189071;22;20176;-87
2022/11/03 01:30:34;;;;;;;17.30;7.53;;;;;;;8.09;92.61;98461.78;5188551;22;20719;-87
2022/11/03 01:32:37;;;;;;;9.07;5.53;;;;;;;8.06;93.16;98461.94;5189196;22;20173;-87
2022/11/03 01:34:40;;;;;;;7.75;4.88;;;;;;;8.04;92.72;98460.34;5216428;22;20624;-87
2022/11/03 01:36:45;;;;;;;8.95;4.95;;;;;;;8.03;92.84;98456.91;5213983;22;20203;-87
2022/11/03 01:38:48;;;;;;;10.27;5.70;;;;;;;8.02;92.67;98450.03;5216556;22;20175;-87
2022/11/03 01:40:52;;;;;;;9.77;5.50;;;;;;;8.01;92.13;98450.97;5214351;22;20263;-87
2022/11/03 01:42:55;;;;;;;8.10;4.82;;;;;;;7.99;92.47;98438.97;5214856;22;20179;-86
2022/11/03 01:44:58;;;;;;;10.98;5.70;;;;;;;7.98;92.18;98435.53;5188324;22;20176;-87
2022/11/03 01:47:07;;;;;;;10.50;5.63;;;;;;;7.98;91.75;98438.13;5214655;22;20200;-86
2022/11/03 01:49:13;;;;;;;8.18;4.90;;;;;;;7.99;93.52;98418.19;5214640;22;20180;-86
2022/11/03 01:51:18;;;;;;;8.32;5.20;;;;;;;7.96;92.60;98425.31;5188369;22;20285;-87
2022/11/03 01:53:23;;;;;;;10.00;5.00;;;;;;;7.95;92.19;98427.06;5215831;22;20168;-87
2022/11/03 01:55:29;;;;;;;8.80;4.90;;;;;;;7.94;93.14;98419.34;5188591;22;20256;-87
2022/11/03 01:57:35;;;;;;;7.47;4.40;;;;;;;7.94;94.02;98408.97;5188886;22;20180;-87
2022/11/03 01:59:38;;;;;;;10.25;5.03;;;;;;;7.93;93.58;98409.91;5214311;22;20172;-86
2022/11/03 02:01:42;;;;;;;8.82;4.50;;;;;;;7.90;93.01;98410.06;5215264;22;20204;-87
2022/11/03 02:03:48;;;;;;;9.27;6.07;;;;;;;7.91;93.71;98409.13;5214356;22;20243;-87
2022/11/03 02:05:51;;;;;;;8.13;5.87;;;;;;;7.92;93.75;98405.63;5219304;22;20202;-87
2022/11/03 02:07:58;;;;;;;14.48;5.95;;;;;;;7.91;92.73;98403.94;5191671;22;20636;-86
2022/11/03 02:10:03;;;;;;;8.25;5.00;;;;;;;7.89;92.58;98400.59;5190530;22;20743;-87
2022/11/03 02:12:06;;;;;;;8.77;5.63;;;;;;;7.89;93.58;98403.19;5215734;22;20172;-87
2022/11/03 02:14:11;;;;;;;9.98;5.90;;;;;;;7.88;93.48;98406.69;5189027;22;20633;-87
2022/11/03 02:16:14;;;;;;;18.35;8.20;;;;;;;7.87;93.63;98398.06;5217189;22;20183;-87
2022/11/03 02:18:19;;;;;;;13.82;7.88;;;;;;;7.88;93.49;98389.38;5189390;22;20173;-87
2022/11/03 02:20:24;;;;;;;12.35;7.85;;;;;;;7.88;93.25;98388.50;5190755;22;20897;-86
2022/11/03 02:22:44;;;;;;;12.77;6.05;;;;;;;7.88;93.40;98394.56;5191057;22;20195;-87
2022/11/03 02:24:50;;;;;;;10.80;6.50;;;;;;;7.85;93.18;98380.88;5190923;22;20500;-87
2022/11/03 02:26:57;;;;;;;10.52;6.95;;;;;;;7.85;93.89;98378.28;5217824;22;20197;-87
2022/11/03 02:29:00;;;;;;;11.10;7.28;;;;;;;7.83;93.07;98378.38;5190255;22;20628;-87
2022/11/03 02:31:10;;;;;;;9.73;5.90;;;;;;;7.83;92.39;98386.16;5190382;22;20629;-87
2022/11/03 02:33:23;;;;;;;10.15;5.93;;;;;;;7.79;93.40;98382.06;5217858;22;20225;-87
2022/11/03 02:35:31;;;;;;;11.75;7.10;;;;;;;7.78;93.59;98382.16;5215690;22;20172;-87
2022/11/03 02:37:37;;;;;;;9.70;6.00;;;;;;;7.76;93.29;98382.22;5216441;22;20250;-87
2022/11/03 02:39:42;;;;;;;12.48;5.55;;;;;;;7.74;92.77;98375.44;5190392;22;20243;-87
2022/11/03 02:41:46;;;;;;;12.00;5.63;;;;;;;7.72;93.39;98378.09;5216154;22;20168;-87
2022/11/03 02:43:51;;;;;;;7.10;5.25;;;;;;;7.67;92.08;98374.09;5190000;22;20194;-87
2022/11/03 02:45:55;;;;;;;11.18;5.20;;;;;;;7.64;92.78;98371.66;5215144;22;20258;-87
2022/11/03 02:47:59;;;;;;;8.15;5.50;;;;;;;7.64;92.43;98369.06;5190447;22;20291;-87
2022/11/03 02:50:06;;;;;;;9.93;5.88;;;;;;;7.62;92.75;98370.88;5190652;22;20173;-87
2022/11/03 02:52:33;;;;;;;11.02;6.00;;;;;;;7.61;92.82;98369.22;5215474;22;20390;-86
2022/11/03 02:54:41;;;;;;;9.80;5.68;;;;;;;7.62;92.93;98368.28;5188929;22;20231;-87
2022/11/03 02:56:49;;;;;;;8.90;5.30;;;;;;;7.61;92.45;98367.44;5216379;22;20595;-87
2022/11/03 02:58:57;;;;;;;10.30;5.10;;;;;;;7.59;92.73;98361.50;5215900;22;20937;-87
2022/11/03 03:01:04;;;;;;;11.02;6.15;;;;;;;7.58;92.86;98361.59;5190586;22;20542;-87
2022/11/03 03:03:11;;;;;;;12.88;6.10;;;;;;;7.57;92.95;98352.94;5217846;22;20206;-87
2022/11/03 03:05:14;;;;;;;8.18;6.35;;;;;;;7.58;93.50;98348.63;5215206;22;20544;-87
2022/11/03 03:07:22;;;;;;;9.15;4.90;;;;;;;7.58;93.45;98359.00;5189291;22;20230;-87
2022/11/03 03:09:27;;;;;;;9.38;4.60;;;;;;;7.57;93.54;98344.34;5190347;22;20182;-87
2022/11/03 03:11:39;;;;;;;8.45;5.57;;;;;;;7.57;93.79;98341.75;5189417;22;20177;-87
2022/11/03 03:13:43;;;;;;;7.18;4.85;;;;;;;7.56;93.55;98340.06;5215531;22;20490;-87
2022/11/03 03:15:51;;;;;;;12.38;6.55;;;;;;;7.55;93.88;98341.81;5213415;22;20178;-87
2022/11/03 03:17:57;;;;;;;6.82;4.93;;;;;;;7.55;94.29;98343.59;5190259;22;20165;-87
2022/11/03 03:20:03;;;;;;;10.13;5.65;;;;;;;7.52;94.33;98333.38;5215092;22;20202;-87
2022/11/03 03:22:15;;;;;;;7.45;5.38;;;;;;;7.51;94.96;98332.50;5164673;22;20652;-87
2022/11/03 03:24:23;;;;;;;6.47;4.70;;;;;;;7.51;95.24;98326.50;5189193;22;20177;-87
2022/11/03 03:26:29;;;;;;;8.20;5.47;;;;;;;7.51;94.74;98318.72;5215573;22;20214;-87
2022/11/03 03:28:36;;;;;;;7.57;5.03;;;;;;;7.52;93.75;98323.81;5214856;22;20602;-87
2022/11/03 03:30:40;;;;;;;7.70;4.75;;;;;;;7.50;93.57;98317.88;5188537;22;20229;-87
2022/11/03 03:32:46;;;;;;;8.63;4.70;;;;;;;7.49;93.38;98303.22;5214900;22;20791;-87
2022/11/03 03:34:50;;;;;;;8.48;4.75;;;;;;;7.48;93.26;98303.31;5188907;22;20637;-87
2022/11/03 03:36:56;;;;;;;10.63;4.63;;;;;;;7.46;94.49;98299.09;5216858;22;20210;-87
2022/11/03 03:39:02;;;;;;;9.70;5.85;;;;;;;7.43;93.26;98291.47;5189663;22;20708;-87
2022/11/03 03:41:07;;;;;;;7.03;4.10;;;;;;;7.42;93.52;98293.25;5215398;22;20211;-87
2022/11/03 03:43:14;;;;;;;6.25;4.22;;;;;;;7.41;93.92;98291.56;5189403;22;20194;-87
2022/11/03 03:45:17;;;;;;;8.38;4.20;;;;;;;7.40;93.48;98289.91;5189045;22;20557;-87
2022/11/03 03:47:23;;;;;;;6.30;4.53;;;;;;;7.41;93.45;98285.53;5214635;22;20186;-87
2022/11/03 03:49:28;;;;;;;5.82;3.83;;;;;;;7.41;94.67;98285.53;5189932;22;20196;-87
2022/11/03 03:51:32;;;;;;;8.93;4.30;;;;;;;7.40;94.06;98276.94;5214984;22;20260;-87
2022/11/03 03:53:35;;;;;;;6.80;4.05;;;;;;;7.40;93.65;98282.13;5189145;22;20499;-87
2022/11/03 03:55:39;;;;;;;6.68;4.53;;;;;;;7.39;94.17;98279.59;5214910;22;20176;-87
2022/11/03 03:57:43;;;;;;;11.75;4.47;;;;;;;7.38;94.43;98278.78;5214346;22;20171;-87
2022/11/03 03:59:46;;;;;;;7.72;4.68;;;;;;;7.37;93.72;98282.28;5188308;22;20222;-87
2022/11/03 04:01:49;;;;;;;6.55;3.90;;;;;;;7.36;93.07;98275.41;5214533;22;20212;-86
2022/11/03 04:03:52;;;;;;;8.88;4.70;;;;;;;7.34;93.31;98273.84;5214634;22;20234;-87
2022/11/03 04:05:57;;;;;;;7.78;4.40;;;;;;;7.34;92.80;98269.47;5189113;22;20168;-87
2022/11/03 04:07:59;;;;;;;5.50;4.20;;;;;;;7.33;94.16;98266.97;5213927;22;20182;-87
2022/11/03 04:10:03;;;;;;;11.43;5.72;;;;;;;7.33;92.94;98265.19;5215168;22;20172;-87
2022/11/03 04:23:53;;;;;;;8.10;4.75;;;;;;;7.27;93.71;98247.34;5214911;22;20167;-87
2022/11/03 04:25:56;;;;;;;6.88;4.15;;;;;;;7.24;92.99;98242.34;5216211;22;20178;-87
2022/11/03 04:27:59;;;;;;;7.15;4.40;;;;;;;7.23;93.78;98235.50;5189179;22;20181;-87
2022/11/03 04:30:13;;;;;;;8.20;4.80;;;;;;;7.22;93.41;98236.41;5215813;22;20237;-88
2022/11/03 04:32:17;;;;;;;9.38;4.65;;;;;;;7.21;93.53;98223.50;5185719;22;20229;-88
2022/11/03 04:34:22;;;;;;;8.73;4.43;;;;;;;7.17;93.60;98217.66;5187033;22;20234;-88
2022/11/03 04:36:26;;;;;;;11.73;5.20;;;;;;;7.19;93.39;98207.22;5189412;22;20177;-87
2022/11/03 04:38:33;;;;;;;6.80;4.60;;;;;;;7.19;94.26;98204.63;5188994;22;20229;-87
2022/11/03 04:40:45;;;;;;;8.73;4.80;;;;;;;7.19;93.60;98200.25;5189309;22;20168;-87
2022/11/03 04:42:54;;;;;;;9.85;4.43;;;;;;;7.18;93.37;98198.56;5188824;22;20176;-88
2022/11/03 04:44:58;;;;;;;6.57;4.68;;;;;;;7.17;94.09;98191.72;5214431;22;20183;-88
2022/11/03 04:47:01;;;;;;;10.60;4.35;;;;;;;7.17;93.39;98190.88;5189161;22;20192;-87
2022/11/03 04:49:05;;;;;;;8.13;5.10;;;;;;;7.15;94.03;98192.72;5188624;22;20626;-88
2022/11/03 04:51:15;;;;;;;11.65;5.13;;;;;;;7.15;93.47;98198.72;5189391;22;20178;-87
2022/11/03 04:53:20;;;;;;;7.80;4.93;;;;;;;7.14;93.06;98191.88;5214840;22;20227;-87
2022/11/03 04:55:24;;;;;;;9.25;4.60;;;;;;;7.13;94.25;98182.44;5188834;22;20615;-87
2022/11/03 04:57:28;;;;;;;8.13;4.75;;;;;;;7.12;94.22;98191.13;5188224;22;20571;-87
2022/11/03 04:59:31;;;;;;;8.00;5.05;;;;;;;7.11;92.48;98186.88;5189246;22;20174;-88
2022/11/03 05:01:34;;;;;;;7.68;5.22;;;;;;;7.09;92.72;98187.84;5189252;22;20184;-87
2022/11/03 05:03:37;;;;;;;8.52;4.85;;;;;;;7.08;93.22;98179.25;5189118;22;20584;-88
2022/11/03 05:05:40;;;;;;;9.23;5.20;;;;;;;7.09;94.08;98178.31;5215240;22;20249;-87
2022/11/03 05:07:43;;;;;;;7.90;5.10;;;;;;;7.10;93.19;98172.22;5189140;22;20173;-87
2022/11/03 05:09:46;;;;;;;7.78;4.70;;;;;;;7.12;93.76;98172.13;5214775;22;20195;-87
2022/11/03 05:11:51;;;;;;;9.70;5.32;;;;;;;7.12;93.39;98167.78;5188696;22;20199;-87
2022/11/03 05:13:54;;;;;;;9.05;5.47;;;;;;;7.11;94.25;98173.91;5188702;22;20178;-88
2022/11/03 05:16:02;;;;;;;8.10;5.60;;;;;;;7.13;93.79;98166.03;5214577;22;20279;-87
2022/11/03 05:18:15;;;;;;;7.28;5.20;;;;;;;7.14;93.02;98165.09;5189205;22;20172;-87
2022/11/03 05:20:30;;;;;;;8.93;4.78;;;;;;;7.14;94.38;98162.50;5187978;22;20175;-87
2022/11/03 05:22:38;;;;;;;8.15;4.65;;;;;;;7.16;94.09;98158.09;5214895;22;20270;-88
2022/11/03 05:24:41;;;;;;;6.80;4.55;;;;;;;7.16;93.26;98156.34;5213050;22;20179;-88
2022/11/03 05:26:44;;;;;;;7.30;5.50;;;;;;;7.16;93.98;98158.09;5214852;22;20198;-88
2022/11/03 05:28:51;;;;;;;10.50;6.00;;;;;;;7.14;93.30;98155.59;5187567;22;20207;-88
2022/11/03 05:30:55;;;;;;;7.53;5.28;;;;;;;7.13;93.78;98150.50;5214320;22;20230;-87
2022/11/03 05:32:58;;;;;;;7.90;5.03;;;;;;;7.12;93.12;98152.22;5189125;22;20203;-88
2022/11/03 05:35:01;;;;;;;7.85;5.30;;;;;;;7.11;94.18;98149.72;5188757;22;20268;-88
2022/11/03 05:37:20;;;;;;;11.10;5.70;;;;;;;7.11;92.91;98147.97;5214380;22;20224;-87
2022/11/03 05:39:31;;;;;;;8.88;5.30;;;;;;;7.10;92.89;98148.88;5214377;22;20169;-87
2022/11/03 05:41:35;;;;;;;9.43;5.60;;;;;;;7.09;92.79;98136.00;5190196;22;20183;-87
2022/11/03 05:43:38;;;;;;;8.45;5.63;;;;;;;7.09;93.15;98144.59;5216446;22;20209;-87
2022/11/03 05:45:43;;;;;;;6.47;5.30;;;;;;;7.06;92.72;98137.00;5215523;22;20187;-88
2022/11/03 05:47:46;;;;;;;9.07;5.47;;;;;;;7.05;93.48;98130.16;5216643;22;20199;-87
2022/11/03 05:49:49;;;;;;;7.90;5.40;;;;;;;7.05;92.78;98130.16;5190546;22;20703;-87
2022/11/03 05:51:52;;;;;;;9.20;5.88;;;;;;;7.06;94.18;98125.78;5216391;22;20258;-87
2022/11/03 05:53:57;;;;;;;10.85;6.63;;;;;;;7.05;93.58;98122.38;5190858;22;20207;-88
2022/11/03 05:56:02;;;;;;;9.25;5.75;;;;;;;7.05;93.87;98119.78;5190404;22;20691;-87
2022/11/03 05:58:13;;;;;;;9.98;6.10;;;;;;;7.05;93.52;98119.78;5189633;22;20177;-87
2022/11/03 06:00:25;;;;;;;8.10;5.90;;;;;;;7.03;93.02;98119.00;5215949;22;20172;-87
2022/11/03 06:02:37;;;;;;;9.98;6.30;;;;;;;7.03;93.51;98114.75;5215779;22;20555;-88
2022/11/03 06:04:40;;;;;;;7.47;5.75;;;;;;;7.03;92.98;98109.56;5214395;22;20274;-87
2022/11/03 06:06:43;;;;;;;7.25;5.40;;;;;;;7.03;92.99;98106.03;5214832;22;20533;-87
2022/11/03 06:08:46;;;;;;;9.40;5.28;;;;;;;7.01;93.44;98101.06;5215461;22;20185;-87
2022/11/03 06:10:52;;;;;;;8.40;5.57;;;;;;;7.03;93.82;98106.03;5214302;22;20192;-87
2022/11/03 06:12:59;;;;;;;11.15;5.25;;;;;;;7.01;92.70;98095.88;5214089;22;20156;-88
2022/11/03 06:15:07;;;;;;;9.25;5.38;;;;;;;7.01;92.66;98103.66;5188027;22;20176;-87
2022/11/03 06:17:13;;;;;;;7.15;5.60;;;;;;;7.03;93.28;98104.41;5213791;22;20177;-87
2022/11/03 06:19:22;;;;;;;9.02;6.45;;;;;;;7.02;93.19;98108.72;5189181;22;20179;-87
2022/11/03 06:21:25;;;;;;;9.90;6.22;;;;;;;7.03;92.84;98112.16;5188088;22;20894;-88
2022/11/03 06:23:28;;;;;;;8.02;6.32;;;;;;;7.04;93.84;98109.50;5188508;22;20610;-87
2022/11/03 06:25:33;;;;;;;13.80;6.93;;;;;;;7.03;92.64;98111.22;5213948;22;20186;-87
2022/11/03 06:27:36;;;;;;;11.65;6.35;;;;;;;7.04;93.26;98105.13;5187644;22;20184;-88
2022/11/03 06:29:39;;;;;;;7.55;6.25;;;;;;;7.08;93.27;98108.38;5188640;22;20215;-88
2022/11/03 06:31:43;;;;;;;9.13;5.95;;;;;;;7.10;94.14;98107.41;5213548;22;20205;-87
2022/11/03 06:33:47;;;;;;;11.88;7.10;;;;;;;7.15;93.51;98104.56;5214032;22;20478;-87
2022/11/03 06:35:54;;;;;;;11.07;6.32;;;;;;;7.19;94.56;98106.06;5214516;22;20172;-88
2022/11/03 06:37:58;;;;;;;8.95;5.75;;;;;;;7.23;93.97;98097.19;5188693;22;20169;-88
2022/11/03 06:40:03;;;;;;;10.82;6.82;;;;;;;7.27;94.57;98096.94;5215337;22;20262;-88
2022/11/03 06:42:11;;;;;;;8.00;6.25;;;;;;;7.36;93.35;98095.59;5215142;22;20180;-87
2022/11/03 06:44:22;;;;;;;8.85;6.47;;;;;;;7.53;94.49;98085.94;5187467;22;20179;-88
2022/11/03 06:46:26;;;;;;;10.10;7.15;;;;;;;7.71;92.68;98084.88;5214027;22;20168;-87
2022/11/03 06:48:29;;;;;;;8.15;6.25;;;;;;;7.88;94.11;98076.97;5213285;22;20179;-88
2022/11/03 06:50:33;;;;;;;12.02;7.85;;;;;;;8.00;94.02;98070.16;5188014;22;20254;-88
2022/11/03 06:52:41;;;;;;;8.15;6.20;;;;;;;8.12;92.50;98077.25;5187154;22;20184;-87
2022/11/03 06:54:47;;;;;;;7.80;5.80;;;;;;;8.21;91.94;98081.06;5215082;22;20175;-87
2022/11/03 06:56:50;;;;;;;9.95;6.75;;;;;;;8.32;91.76;98079.50;5187334;22;20165;-88
2022/11/03 06:58:55;;;;;;;15.27;6.85;;;;;;;8.45;91.15;98085.66;5213277;22;20678;-87
2022/11/03 07:01:00;;;;;;;12.50;7.10;;;;;;;8.59;92.55;98088.25;5188126;22;20176;-87
2022/11/03 07:03:08;;;;;;;8.57;6.70;;;;;;;8.76;91.21;98086.28;5214110;22;20191;-88
2022/11/03 07:05:18;;;;;;;9.90;6.77;;;;;;;8.91;91.75;98082.72;5135294;22;1244555;-87
2022/11/03 07:07:24;;;;;;;13.70;6.85;;;;;;;9.06;90.49;98085.22;5189254;22;20200;-87
2022/11/03 07:09:29;;;;;;;9.07;7.00;;;;;;;9.22;91.86;98090.31;5215918;22;20177;-87
2022/11/03 07:11:35;;;;;;;12.23;6.63;;;;;;;9.33;91.23;98087.88;5213602;22;20686;-88
2022/11/03 07:13:39;;;;;;;7.95;5.90;;;;;;;9.46;90.51;98087.00;5214823;22;20542;-87
2022/11/03 07:15:44;;;;;;;8.45;5.80;;;;;;;9.64;90.95;98101.44;5189358;22;20176;-88
2022/11/03 07:17:47;;;;;;;9.48;6.40;;;;;;;9.77;90.67;98097.06;5188803;22;20180;-88
2022/11/03 07:19:51;;;;;;;8.18;6.18;;;;;;;9.91;90.94;98098.69;5188557;22;20173;-88
2022/11/03 07:21:56;;;;;;;8.95;5.97;;;;;;;10.01;90.77;98097.19;5189612;22;20520;-87
2022/11/03 07:24:00;;;;;;;8.77;5.85;;;;;;;10.05;90.70;98101.25;5189791;22;20207;-88
2022/11/03 07:26:08;;;;;;;6.60;5.60;;;;;;;10.23;90.64;98099.19;5189494;22;20180;-88
2022/11/03 07:28:11;;;;;;;9.97;6.10;;;;;;;10.38;90.20;98096.41;5214272;22;20625;-88
2022/11/03 07:30:19;;;;;;;8.60;6.30;;;;;;;10.47;88.80;98098.38;5214813;22;20594;-88
2022/11/03 07:32:24;;;;;;;8.53;6.37;;;;;;;10.49;89.14;98091.28;5189232;22;20180;-88
2022/11/03 07:34:31;;;;;;;9.97;5.77;;;;;;;10.49;88.40;98086.94;5189862;22;20618;-88
2022/11/03 07:36:34;;;;;;;9.33;6.20;;;;;;;10.53;88.09;98087.53;5189689;22;20616;-88
2022/11/03 07:38:38;;;;;;;10.40;6.63;;;;;;;10.57;88.49;98073.34;5216789;22;20593;-87
2022/11/03 07:40:42;;;;;;;12.10;6.30;;;;;;;10.61;88.12;98059.16;5189088;22;21165;-88
2022/11/03 07:42:46;;;;;;;8.50;6.43;;;;;;;10.71;89.38;98061.03;5214149;22;20571;-88
2022/11/03 07:44:50;;;;;;;10.10;6.40;;;;;;;10.84;88.43;98056.63;5214548;22;20645;-87
2022/11/03 07:46:53;;;;;;;8.40;6.23;;;;;;;10.96;89.75;98055.75;5216601;22;20623;-88
2022/11/03 07:48:57;;;;;;;8.80;6.27;;;;;;;11.14;89.08;98041.41;5189513;22;21332;-88
2022/11/03 07:51:03;;;;;;;12.00;6.77;;;;;;;11.22;89.26;98046.94;5214982;22;20611;-88
2022/11/03 07:53:12;;;;;;;9.73;6.60;;;;;;;11.17;87.82;98042.03;5215224;22;20566;-88
2022/11/03 07:55:15;;;;;;;9.00;6.10;;;;;;;11.13;89.06;98044.97;5188712;22;21259;-88
2022/11/03 07:57:21;;;;;;;8.63;6.20;;;;;;;11.08;89.35;98042.69;5188545;22;20602;-88
2022/11/03 07:59:28;;;;;;;7.83;6.20;;;;;;;11.10;90.07;98034.75;5214981;22;21192;-88
2022/11/03 08:01:32;;;;;;;6.70;5.97;;;;;;;11.11;89.49;98037.25;5214131;22;21123;-88
2022/11/03 08:03:42;;;;;;;7.67;6.37;;;;;;;11.12;89.06;98038.06;5213640;22;20602;-88
2022/11/03 08:05:45;;;;;;;11.03;6.60;;;;;;;11.08;90.09;98028.78;5188683;22;20956;-88
2022/11/03 08:07:48;;;;;;;7.60;6.00;;;;;;;11.06;89.73;98034.13;5213958;22;20578;-88
2022/11/03 08:09:51;;;;;;;8.97;6.20;;;;;;;11.02;89.55;98022.25;5216696;22;21121;-89
2022/11/03 08:11:55;;;;;;;9.27;6.20;;;;;;;11.02;91.13;98022.25;5187377;22;20615;-88
2022/11/03 08:13:58;;;;;;;8.97;5.90;;;;;;;11.05;90.15;98016.81;5188813;22;20640;-88
2022/11/03 08:16:02;;;;;;;10.00;5.70;;;;;;;11.07;89.48;98016.69;5189645;22;20583;-88
2022/11/03 08:18:06;;;;;;;11.33;6.30;;;;;;;11.07;89.57;98014.09;5188225;22;20681;-87
2022/11/03 08:20:10;;;;;;;8.87;5.80;;;;;;;11.09;90.54;98015.63;5188982;22;20674;-86
2022/11/03 08:22:13;;;;;;;10.53;6.40;;;;;;;11.15;91.52;98015.19;5214260;22;20652;-86
2022/11/03 08:24:16;;;;;;;8.43;5.77;;;;;;;11.18;90.34;98017.59;5213447;22;20547;-85
2022/11/03 08:26:19;;;;;;;7.17;5.80;;;;;;;11.24;92.07;98014.53;5214727;22;20620;-85
2022/11/03 08:28:23;;;;;;;8.23;5.73;;;;;;;11.35;91.66;98017.19;5212861;22;21122;-85
2022/11/03 08:30:26;;;;;;;9.47;6.17;;;;;;;11.48;90.12;98012.78;5187128;22;20587;-84
2022/11/03 08:32:30;;;;;;;10.90;6.47;;;;;;;11.53;91.27;98000.22;5215769;22;20573;-84
2022/11/03 08:34:34;;;;;;;9.00;5.60;;;;;;;11.50;90.11;97995.22;5185929;22;21107;-85
2022/11/03 08:36:37;;;;;;;9.67;5.50;;;;;;;11.56;91.95;97992.16;5213871;22;20585;-86
2022/11/03 08:38:40;;;;;;;7.20;5.40;;;;;;;11.64;90.00;97982.00;5187998;22;20583;-86
2022/11/03 08:40:43;;;;;;;9.63;5.93;;;;;;;11.66;89.31;97980.09;5214214;22;20582;-85
2022/11/03 08:42:46;;;;;;;8.53;5.20;;;;;;;11.71;91.86;97977.97;5188086;22;20587;-85
2022/11/03 08:44:49;;;;;;;6.50;5.33;;;;;;;11.78;89.58;97982.63;5188858;22;20670;-86
2022/11/03 08:46:52;;;;;;;8.67;5.63;;;;;;;11.86;90.29;97978.50;5215017;22;20582;-86
2022/11/03 08:48:57;;;;;;;8.77;6.10;;;;;;;11.98;91.21;97971.50;5189750;22;21225;-86
2022/11/03 08:51:00;;;;;;;10.13;6.30;;;;;;;12.06;90.06;97962.13;5216467;22;20581;-86
2022/11/03 08:53:03;;;;;;;7.70;5.70;;;;;;;12.17;90.02;97959.53;5213668;22;20692;-83
2022/11/03 08:55:07;;;;;;;6.80;5.83;;;;;;;12.27;90.70;97958.69;5214421;22;20628;-83
2022/11/03 08:57:10;;;;;;;8.90;6.00;;;;;;;12.41;91.50;97962.88;5189133;22;20713;-83
2022/11/03 08:59:13;;;;;;;11.33;6.90;;;;;;;12.51;91.54;97958.56;5189273;22;20682;-83
2022/11/03 09:01:16;;;;;;;9.40;6.30;;;;;;;12.61;91.36;97960.34;5188937;22;20574;-83
2022/11/03 09:03:19;;;;;;;9.23;6.67;;;;;;;12.70;90.97;97959.63;5188979;22;20604;-86
2022/11/03 09:05:24;;;;;;;9.00;6.40;;;;;;;12.77;90.93;97955.59;5189306;22;21103;-88
2022/11/03 09:07:27;;;;;;;9.27;5.63;;;;;;;12.77;90.59;97952.97;5188894;22;20587;-86
2022/11/03 09:09:51;;;;;;;9.10;6.27;;;;;;;12.84;90.20;97960.25;5213212;22;20643;-86
2022/11/03 09:12:14;;;;;;;7.40;5.03;;;;;;;12.92;89.92;97950.00;5213873;22;20935;-84
2022/11/03 09:14:17;;;;;;;8.03;4.77;;;;;;;12.96;89.21;97948.81;5216347;22;21159;-84
2022/11/03 09:16:20;;;;;;;9.80;5.80;;;;;;;13.09;89.43;97948.63;5214539;22;20563;-84
2022/11/03 09:18:23;;;;;;;8.53;6.00;;;;;;;13.26;90.03;97946.31;5189385;22;20584;-83
2022/11/03 09:20:27;;;;;;;9.37;6.80;;;;;;;13.39;89.60;97946.97;5189857;22;20584;-83
2022/11/03 09:22:30;;;;;;;11.23;6.70;;;;;;;13.56;90.53;97952.53;5188910;22;20583;-84
2022/11/03 09:24:34;;;;;;;9.20;6.50;;;;;;;13.69;90.65;97950.53;5187625;22;20590;-84
2022/11/03 09:26:37;;;;;;;12.80;6.80;;;;;;;13.73;89.54;97949.31;5214495;22;20605;-84
2022/11/03 09:28:40;;;;;;;9.77;6.60;;;;;;;13.74;89.03;97953.59;5186198;22;20675;-83
2022/11/03 09:30:43;;;;;;;5.90;5.00;;;;;;;13.77;89.32;97946.31;5188634;22;21061;-84
2022/11/03 09:32:46;;;;;;;7.23;5.30;;;;;;;13.80;89.98;97950.47;5190725;22;20704;-84
2022/11/03 09:34:49;;;;;;;13.90;6.63;;;;;;;13.91;89.97;97945.19;5213077;22;20687;-83
2022/11/03 09:36:54;;;;;;;11.47;6.73;;;;;;;13.99;89.92;97951.41;5215941;22;20624;-84
2022/11/03 09:38:57;;;;;;;13.50;8.00;;;;;;;14.09;90.50;97949.72;5214269;22;20650;-84
2022/11/03 09:41:01;;;;;;;10.60;6.37;;;;;;;14.18;90.78;97949.78;5189269;22;21001;-85
2022/11/03 09:43:11;;;;;;;12.37;6.40;;;;;;;14.26;90.95;97942.06;5189476;22;20568;-84
2022/11/03 09:45:14;;;;;;;7.83;6.00;;;;;;;14.34;90.47;97944.03;5214227;22;20911;-84
2022/11/03 09:47:23;;;;;;;7.23;5.70;;;;;;;14.37;89.79;97943.78;5214435;22;20581;-86
2022/11/03 09:49:27;;;;;;;7.83;6.37;;;;;;;14.37;88.36;97943.78;5189430;22;20616;-84
2022/11/03 09:51:36;;;;;;;7.67;5.63;;;;;;;14.38;89.13;97938.41;5214746;22;20587;-83
2022/11/03 09:53:40;;;;;;;9.33;5.57;;;;;;;14.50;89.53;97941.78;5188161;22;20580;-81
2022/11/03 09:55:44;;;;;;;6.70;5.40;;;;;;;14.59;89.63;97930.50;5188171;22;20570;-84
2022/11/03 09:57:47;;;;;;;11.43;5.97;;;;;;;14.63;88.81;97936.16;5214965;22;20578;-83
2022/11/03 09:59:51;;;;;;;16.10;6.50;;;;;;;14.65;87.85;97938.66;5186597;22;20589;-84
2022/11/03 10:01:54;;;;;;;9.87;6.00;;;;;;;14.68;87.82;97936.59;5188845;22;20573;-84
2022/11/03 10:03:59;;;;;;;7.93;5.73;;;;;;;14.76;89.56;97934.13;5187705;22;21088;-84
2022/11/03 10:06:03;;;;;;;8.20;5.60;;;;;;;14.82;87.14;97933.56;5188919;22;20578;-85